Time;durP1;ratioP1;P1;durP2;ratioP2;P2;SDS_P1;SDS_P2;PMS_P1;PMS_P2;Temp;Humidity;BMP_temperature;BMP_pressure;BME280_temperature;BME280_humidity;BME280_pressure;Samples;Min_cycle;Max_cycle;Signal;HPM_P1;HPM_P2
2022/02/26 00:01:35;;;;;;;5.30;2.80;;;;;;;3.89;71.58;101897.34;5034309;28;20040;-21
2022/02/26 00:04:01;;;;;;;7.05;2.78;;;;;;;3.87;71.47;101898.97;5035177;28;20402;-21
2022/02/26 00:06:26;;;;;;;9.65;3.08;;;;;;;3.85;71.91;101905.88;5039664;28;20035;-21
2022/02/26 00:08:52;;;;;;;9.13;3.20;;;;;;;3.82;71.61;101909.28;5040994;28;20499;-21
2022/02/26 00:11:17;;;;;;;10.10;2.45;;;;;;;3.82;71.82;101913.59;5038346;28;20024;-21
2022/02/26 00:13:42;;;;;;;11.40;2.65;;;;;;;3.81;71.46;101919.66;5041213;28;20037;-21
2022/02/26 00:16:08;;;;;;;7.65;2.47;;;;;;;3.77;71.53;101920.34;5035578;28;20172;-21
2022/02/26 00:18:33;;;;;;;5.40;2.70;;;;;;;3.76;72.08;101923.81;5041900;28;20064;-21
2022/02/26 00:20:58;;;;;;;12.45;2.95;;;;;;;3.73;71.80;101929.78;5042039;28;20025;-21
2022/02/26 00:23:24;;;;;;;8.93;2.47;;;;;;;3.70;72.05;101925.31;5033522;28;20036;-21
2022/02/26 00:25:49;;;;;;;7.20;2.92;;;;;;;3.69;71.76;101934.00;5040510;28;20464;-21
2022/02/26 00:28:14;;;;;;;12.82;2.65;;;;;;;3.68;71.93;101939.16;5035478;28;20029;-21
2022/02/26 00:30:40;;;;;;;9.82;2.78;;;;;;;3.64;72.05;101932.94;5038360;28;20057;-21
2022/02/26 00:33:05;;;;;;;14.43;3.35;;;;;;;3.64;71.71;101938.16;5043144;28;20029;-22
2022/02/26 00:35:31;;;;;;;12.48;3.10;;;;;;;3.63;71.95;101938.09;5039504;28;20026;-22
2022/02/26 00:37:56;;;;;;;11.75;3.10;;;;;;;3.58;72.12;101940.50;5040240;28;20040;-22
2022/02/26 00:40:22;;;;;;;10.32;3.42;;;;;;;3.57;71.66;101943.94;5039699;28;20159;-22
2022/02/26 00:42:47;;;;;;;10.20;3.78;;;;;;;3.56;71.68;101950.88;5034352;28;20280;-21
2022/02/26 00:45:13;;;;;;;10.52;3.92;;;;;;;3.55;71.89;101956.03;5038458;28;20021;-21
2022/02/26 00:47:38;;;;;;;8.70;2.78;;;;;;;3.53;71.55;101949.88;5036091;28;20025;-22
2022/02/26 00:50:04;;;;;;;9.23;2.83;;;;;;;3.51;71.82;101964.56;5038968;28;20032;-21
2022/02/26 00:52:31;;;;;;;10.73;2.42;;;;;;;3.46;71.96;101954.81;5045234;28;20075;-21
2022/02/26 00:54:57;;;;;;;8.55;2.80;;;;;;;3.43;71.76;101965.13;5043868;28;20032;-21
2022/02/26 00:57:23;;;;;;;10.35;3.05;;;;;;;3.43;71.67;101969.44;5047554;28;20028;-21
2022/02/26 00:59:48;;;;;;;12.93;2.92;;;;;;;3.40;71.99;101970.22;5045200;28;20032;-21
2022/02/26 01:02:14;;;;;;;7.15;2.38;;;;;;;3.40;72.14;101972.81;5041886;28;20018;-21
2022/02/26 01:04:40;;;;;;;6.63;3.25;;;;;;;3.37;72.12;101983.13;5037231;28;20592;-21
2022/02/26 01:07:06;;;;;;;14.95;2.80;;;;;;;3.36;71.76;101972.66;5034448;28;20032;-22
2022/02/26 01:09:32;;;;;;;8.02;2.28;;;;;;;3.34;71.76;101980.41;5035876;28;20092;-22
2022/02/26 01:11:57;;;;;;;10.63;3.38;;;;;;;3.34;71.62;101985.63;5035821;28;20517;-21
2022/02/26 01:14:23;;;;;;;8.50;2.55;;;;;;;3.31;71.99;101981.13;5034324;28;20387;-21
2022/02/26 01:16:48;;;;;;;5.93;2.50;;;;;;;3.30;72.21;101995.03;5036701;28;20029;-21
2022/02/26 01:19:14;;;;;;;10.25;2.58;;;;;;;3.28;71.53;101990.56;5035642;28;20055;-21
2022/02/26 01:21:39;;;;;;;8.52;2.83;;;;;;;3.27;71.91;101994.00;5028247;28;20045;-21
2022/02/26 01:24:05;;;;;;;8.43;2.40;;;;;;;3.25;71.89;101995.66;5040392;28;20021;-21
2022/02/26 01:26:30;;;;;;;12.05;2.78;;;;;;;3.23;71.79;101997.31;5038447;28;20084;-21
2022/02/26 01:28:56;;;;;;;6.75;3.00;;;;;;;3.23;71.80;102000.78;5038614;28;20112;-21
2022/02/26 01:31:21;;;;;;;6.15;2.88;;;;;;;3.19;71.80;101997.19;5036726;28;20020;-21
2022/02/26 01:33:47;;;;;;;6.63;2.88;;;;;;;3.18;71.76;101999.72;5033941;28;20162;-21
2022/02/26 01:36:12;;;;;;;6.00;2.40;;;;;;;3.17;71.92;102003.16;5036837;28;20018;-21
2022/02/26 01:38:38;;;;;;;7.85;2.72;;;;;;;3.16;71.71;102004.88;5033270;28;20029;-21
2022/02/26 01:41:04;;;;;;;6.70;2.05;;;;;;;3.13;71.82;102004.72;5031948;28;20038;-21
2022/02/26 01:43:29;;;;;;;7.95;2.22;;;;;;;3.12;72.01;102002.94;5032545;28;20029;-21
2022/02/26 01:45:55;;;;;;;8.15;2.50;;;;;;;3.11;72.01;102009.00;5034654;28;20029;-21
2022/02/26 01:48:21;;;;;;;11.15;3.67;;;;;;;3.10;71.81;102009.81;5036181;28;20094;-21
2022/02/26 01:50:46;;;;;;;7.80;2.20;;;;;;;3.07;72.16;102007.09;5031390;28;20490;-21
2022/02/26 01:53:13;;;;;;;10.32;2.40;;;;;;;3.05;71.77;102007.03;5041493;28;20159;-21
2022/02/26 01:55:38;;;;;;;8.60;2.63;;;;;;;3.04;71.92;102017.38;5041136;28;20029;-21
2022/02/26 01:58:04;;;;;;;9.95;2.38;;;;;;;3.04;71.83;102025.19;5046629;28;20044;-21
2022/02/26 02:00:30;;;;;;;10.20;2.88;;;;;;;3.02;72.05;102017.31;5046448;28;20024;-22
2022/02/26 02:02:57;;;;;;;6.72;2.60;;;;;;;3.01;72.26;102025.97;5054398;28;20031;-21
2022/02/26 02:05:26;;;;;;;7.47;2.58;;;;;;;3.00;72.42;102015.47;5033224;28;20040;-21
2022/02/26 02:07:52;;;;;;;13.63;4.03;;;;;;;2.99;72.53;102016.25;5042840;28;20107;-21
2022/02/26 02:10:18;;;;;;;14.73;4.35;;;;;;;2.98;72.71;102014.50;5032534;28;20025;-21
2022/02/26 02:12:44;;;;;;;9.52;2.92;;;;;;;2.98;72.74;102012.78;5033468;28;20033;-21
2022/02/26 02:15:09;;;;;;;12.38;3.40;;;;;;;2.99;72.40;102008.44;5033795;28;20030;-21
2022/02/26 02:17:35;;;;;;;11.70;3.10;;;;;;;2.97;72.93;102004.91;5032371;28;20036;-22
2022/02/26 02:20:00;;;;;;;9.25;2.80;;;;;;;2.99;72.59;102008.44;5033457;28;20372;-21
2022/02/26 02:22:25;;;;;;;12.85;2.92;;;;;;;2.99;72.70;102018.88;5042127;28;20021;-21
2022/02/26 02:24:51;;;;;;;13.18;3.58;;;;;;;3.01;72.81;102009.41;5043583;28;20021;-22
2022/02/26 02:27:17;;;;;;;11.00;3.17;;;;;;;3.01;72.83;102017.22;5037552;28;20099;-21
2022/02/26 02:29:44;;;;;;;14.70;3.45;;;;;;;2.99;72.76;102011.94;5040939;28;20483;-21
2022/02/26 02:32:09;;;;;;;10.68;2.58;;;;;;;3.00;73.13;102012.84;5042210;28;20056;-21
2022/02/26 02:34:35;;;;;;;8.18;2.83;;;;;;;3.00;72.99;102020.69;5044018;28;20525;-21
2022/02/26 02:37:01;;;;;;;7.00;2.60;;;;;;;3.03;72.74;102020.81;5047797;28;20486;-21
2022/02/26 02:39:26;;;;;;;9.30;2.65;;;;;;;3.03;72.98;102011.25;5042402;28;20031;-21
2022/02/26 02:41:52;;;;;;;11.52;2.95;;;;;;;3.03;73.18;102016.47;5045285;28;20402;-21
2022/02/26 02:44:18;;;;;;;9.82;2.83;;;;;;;3.06;72.72;102016.63;5038306;28;20028;-22
2022/02/26 02:46:43;;;;;;;9.75;2.65;;;;;;;3.06;73.20;102015.72;5041009;28;20029;-21
2022/02/26 02:49:09;;;;;;;11.00;3.45;;;;;;;3.07;73.45;102018.38;5041853;28;20513;-21
2022/02/26 02:51:35;;;;;;;11.93;2.85;;;;;;;3.11;73.09;102024.66;5044688;28;20025;-21
2022/02/26 02:54:01;;;;;;;8.23;2.33;;;;;;;3.12;73.39;102028.13;5034933;28;20383;-21
2022/02/26 02:56:26;;;;;;;13.02;3.42;;;;;;;3.12;73.12;102020.31;5037815;28;20108;-21
2022/02/26 02:58:52;;;;;;;8.85;3.25;;;;;;;3.13;73.22;102028.19;5031462;28;20032;-22
2022/02/26 03:01:17;;;;;;;9.65;2.47;;;;;;;3.14;73.43;102027.34;5031921;28;20038;-21
2022/02/26 03:03:43;;;;;;;9.00;2.83;;;;;;;3.13;73.37;102028.19;5032743;28;20471;-21
2022/02/26 03:06:08;;;;;;;16.45;3.33;;;;;;;3.17;73.31;102035.31;5035520;28;20032;-21
2022/02/26 03:08:33;;;;;;;16.52;3.05;;;;;;;3.16;73.29;102033.53;5031734;28;20036;-21
2022/02/26 03:10:59;;;;;;;7.97;2.17;;;;;;;3.19;73.48;102035.38;5032096;28;20021;-21
2022/02/26 03:13:26;;;;;;;15.30;3.17;;;;;;;3.18;73.23;102039.72;5035886;28;20033;-21
2022/02/26 03:15:52;;;;;;;14.27;3.80;;;;;;;3.20;73.34;102040.69;5038059;28;20029;-21
2022/02/26 03:18:19;;;;;;;9.50;2.33;;;;;;;3.20;73.15;102045.88;5032541;28;20022;-21
2022/02/26 03:20:45;;;;;;;9.02;3.22;;;;;;;3.22;73.57;102045.97;5031875;28;20044;-21
2022/02/26 03:23:10;;;;;;;12.88;3.78;;;;;;;3.23;73.50;102046.88;5038321;28;20041;-21
2022/02/26 03:25:36;;;;;;;12.65;3.60;;;;;;;3.23;73.42;102052.06;5041118;28;20029;-21
2022/02/26 03:28:01;;;;;;;10.43;2.83;;;;;;;3.26;73.65;102060.00;5033787;28;20108;-21
2022/02/26 03:30:27;;;;;;;8.63;2.95;;;;;;;3.26;73.31;102060.00;5032737;28;20035;-21
2022/02/26 03:32:52;;;;;;;9.48;2.42;;;;;;;3.27;72.99;102070.50;5030931;28;20024;-21
2022/02/26 03:35:18;;;;;;;8.85;2.30;;;;;;;3.29;73.20;102073.19;5033679;28;20029;-21
2022/02/26 03:37:44;;;;;;;11.07;3.00;;;;;;;3.28;73.19;102074.03;5036653;28;20156;-21
2022/02/26 03:40:11;;;;;;;10.85;2.25;;;;;;;3.30;72.96;102078.47;5038579;28;20025;-21
2022/02/26 03:42:37;;;;;;;7.68;2.97;;;;;;;3.31;73.29;102079.38;5035904;28;20025;-21
2022/02/26 03:45:04;;;;;;;10.63;2.63;;;;;;;3.32;72.93;102081.16;5033186;28;20067;-21
2022/02/26 03:47:30;;;;;;;11.25;2.70;;;;;;;3.32;73.38;102078.53;5041247;28;20172;-21
2022/02/26 03:49:55;;;;;;;8.95;2.72;;;;;;;3.33;73.21;102075.09;5025775;28;20436;-21
2022/02/26 03:52:20;;;;;;;9.38;3.28;;;;;;;3.34;72.78;102085.59;5043360;28;20056;-21
2022/02/26 03:54:46;;;;;;;11.52;2.92;;;;;;;3.35;73.48;102089.13;5031504;28;20041;-21
2022/02/26 03:57:12;;;;;;;11.43;3.05;;;;;;;3.36;73.26;102096.09;5035991;28;20553;-21
2022/02/26 03:59:37;;;;;;;10.43;3.15;;;;;;;3.37;72.99;102099.63;5029460;28;20060;-21
2022/02/26 04:02:03;;;;;;;10.25;2.92;;;;;;;3.37;73.21;102103.09;5038198;28;20694;-21
2022/02/26 04:04:28;;;;;;;8.73;2.45;;;;;;;3.38;73.13;102112.72;5035256;28;20028;-21
2022/02/26 04:06:55;;;;;;;8.38;2.47;;;;;;;3.40;73.41;102116.28;5032923;28;20399;-21
2022/02/26 04:09:21;;;;;;;6.78;3.35;;;;;;;3.37;73.22;102108.31;5031137;28;20036;-21
2022/02/26 04:11:46;;;;;;;13.05;2.92;;;;;;;3.40;72.78;102118.88;5028684;28;20033;-21
2022/02/26 04:14:12;;;;;;;9.85;3.17;;;;;;;3.42;73.31;102130.28;5037966;28;20032;-21
2022/02/26 04:16:37;;;;;;;10.43;3.58;;;;;;;3.42;73.13;102121.56;5035968;28;20387;-21
2022/02/26 04:19:02;;;;;;;11.60;2.80;;;;;;;3.44;72.95;102128.63;5035829;28;20036;-21
2022/02/26 04:21:29;;;;;;;5.90;2.60;;;;;;;3.42;72.93;102135.50;5036965;28;20022;-21
2022/02/26 04:23:54;;;;;;;9.13;2.53;;;;;;;3.44;73.13;102133.84;5035133;28;20044;-21
2022/02/26 04:26:22;;;;;;;11.73;2.60;;;;;;;3.46;73.08;102142.66;5037995;28;20014;-22
2022/02/26 04:28:47;;;;;;;9.70;3.17;;;;;;;3.45;73.39;102139.97;5040628;28;20279;-21
2022/02/26 04:31:13;;;;;;;7.28;2.67;;;;;;;3.45;73.19;102145.19;5033185;28;20025;-21
2022/02/26 04:33:38;;;;;;;10.55;2.78;;;;;;;3.46;73.38;102146.97;5037870;28;20041;-21
2022/02/26 04:36:04;;;;;;;13.00;3.20;;;;;;;3.47;73.29;102153.97;5038584;28;20156;-21
2022/02/26 04:38:29;;;;;;;11.73;2.85;;;;;;;3.49;73.39;102156.63;5041824;28;20520;-22
2022/02/26 04:40:56;;;;;;;11.23;2.35;;;;;;;3.49;73.21;102151.41;5038757;28;20029;-21
2022/02/26 04:43:21;;;;;;;11.25;3.55;;;;;;;3.47;73.13;102149.63;5036241;28;20036;-21
2022/02/26 04:45:47;;;;;;;12.98;3.38;;;;;;;3.48;73.20;102150.53;5034649;28;20025;-21
2022/02/26 04:48:12;;;;;;;14.95;3.88;;;;;;;3.50;73.28;102163.66;5032369;28;20029;-21
2022/02/26 04:50:37;;;;;;;14.55;3.22;;;;;;;3.50;73.17;102166.25;5034230;28;20026;-21
2022/02/26 04:53:03;;;;;;;13.30;3.35;;;;;;;3.50;73.29;102171.47;5040486;28;20423;-21
2022/02/26 04:55:29;;;;;;;10.35;3.00;;;;;;;3.50;73.33;102168.88;5033873;28;20541;-21
2022/02/26 04:57:54;;;;;;;15.20;3.60;;;;;;;3.50;73.08;102174.09;5040660;28;20120;-21
2022/02/26 05:00:20;;;;;;;10.73;2.80;;;;;;;3.51;72.90;102175.88;5035932;28;20116;-21
2022/02/26 05:02:45;;;;;;;13.13;2.80;;;;;;;3.52;72.82;102177.63;5031898;28;20060;-21
2022/02/26 05:05:10;;;;;;;7.47;2.70;;;;;;;3.51;73.23;102183.69;5034914;28;20033;-21
2022/02/26 05:07:36;;;;;;;10.90;3.42;;;;;;;3.51;73.08;102182.00;5037675;28;20495;-21
2022/02/26 05:10:01;;;;;;;12.50;3.47;;;;;;;3.50;72.85;102188.00;5034189;28;20414;-21
2022/02/26 05:12:27;;;;;;;15.10;3.13;;;;;;;3.52;73.12;102186.38;5040488;28;20500;-21
2022/02/26 05:14:54;;;;;;;10.65;3.38;;;;;;;3.51;73.26;102191.53;5036240;28;20034;-21
2022/02/26 05:17:19;;;;;;;13.50;4.10;;;;;;;3.51;73.05;102191.53;5032569;28;20036;-21
2022/02/26 05:19:45;;;;;;;9.65;3.08;;;;;;;3.53;73.46;102198.59;5030484;28;20029;-21
2022/02/26 05:22:10;;;;;;;13.25;4.03;;;;;;;3.52;73.48;102198.50;5032400;28;20051;-21
2022/02/26 05:24:35;;;;;;;14.38;5.07;;;;;;;3.52;73.21;102206.34;5038596;28;20390;-21
2022/02/26 05:27:01;;;;;;;7.60;2.58;;;;;;;3.54;73.36;102215.16;5034937;28;20084;-21
2022/02/26 05:29:26;;;;;;;10.02;2.78;;;;;;;3.52;73.45;102212.47;5037896;28;20026;-21
2022/02/26 05:31:51;;;;;;;14.98;3.42;;;;;;;3.52;73.09;102203.72;5035386;28;20176;-21
2022/02/26 05:34:17;;;;;;;8.48;3.17;;;;;;;3.54;73.50;102222.97;5039722;28;20029;-21
2022/02/26 05:36:43;;;;;;;12.70;3.42;;;;;;;3.53;72.96;102221.19;5036128;28;20025;-21
2022/02/26 05:39:09;;;;;;;8.05;3.13;;;;;;;3.52;72.78;102233.34;5031198;28;20031;-21
2022/02/26 05:41:35;;;;;;;8.05;2.65;;;;;;;3.52;72.96;102229.81;5037104;28;20028;-21
2022/02/26 05:44:00;;;;;;;10.95;2.97;;;;;;;3.52;72.86;102229.81;5035761;28;20399;-22
2022/02/26 05:46:26;;;;;;;8.38;2.72;;;;;;;3.51;73.00;102234.16;5032644;28;20036;-21
2022/02/26 05:48:51;;;;;;;9.55;3.05;;;;;;;3.51;72.91;102244.59;5034945;28;20039;-21
2022/02/26 05:51:16;;;;;;;10.88;3.13;;;;;;;3.49;72.59;102246.22;5017351;28;20072;-21
2022/02/26 05:53:42;;;;;;;10.05;2.55;;;;;;;3.49;72.88;102260.97;5035913;28;20061;-21
2022/02/26 05:56:07;;;;;;;14.73;3.17;;;;;;;3.47;72.60;102258.34;5036632;28;20068;-22
2022/02/26 05:58:32;;;;;;;6.88;2.53;;;;;;;3.46;73.00;102262.66;5030603;28;20056;-22
2022/02/26 06:00:58;;;;;;;9.00;3.00;;;;;;;3.46;72.63;102266.97;5027133;28;20029;-21
2022/02/26 06:03:23;;;;;;;8.43;2.28;;;;;;;3.43;72.31;102269.41;5031255;28;20033;-21
2022/02/26 06:05:48;;;;;;;6.15;2.42;;;;;;;3.42;72.63;102276.38;5038086;28;20025;-21
2022/02/26 06:08:14;;;;;;;5.38;2.10;;;;;;;3.42;72.49;102280.69;5033540;28;20164;-21
2022/02/26 06:10:40;;;;;;;6.80;2.28;;;;;;;3.41;72.76;102290.25;5024842;28;20033;-21
2022/02/26 06:13:05;;;;;;;7.78;2.53;;;;;;;3.38;72.32;102290.09;5033553;28;20028;-21
2022/02/26 06:15:30;;;;;;;5.85;2.25;;;;;;;3.38;72.68;102284.88;5031055;28;20241;-21
2022/02/26 06:17:56;;;;;;;9.27;2.28;;;;;;;3.38;72.39;102300.53;5037792;28;20071;-22
2022/02/26 06:20:21;;;;;;;5.18;2.42;;;;;;;3.35;72.24;102303.00;5039816;28;20030;-21
2022/02/26 06:22:48;;;;;;;8.13;2.53;;;;;;;3.33;72.17;102302.00;5033186;28;20394;-21
2022/02/26 06:25:14;;;;;;;4.53;2.03;;;;;;;3.32;72.25;102306.34;5036551;28;20143;-21
2022/02/26 06:27:41;;;;;;;9.85;3.25;;;;;;;3.32;72.24;102313.28;5035056;28;20944;-21
2022/02/26 06:30:08;;;;;;;7.60;2.22;;;;;;;3.30;72.25;102314.94;5033126;28;20325;-21
2022/02/26 06:32:35;;;;;;;7.10;2.30;;;;;;;3.28;72.61;102319.16;5040277;28;20025;-21
2022/02/26 06:35:00;;;;;;;8.35;2.50;;;;;;;3.30;72.24;102333.19;5033321;28;20680;-21
2022/02/26 06:37:26;;;;;;;5.07;2.28;;;;;;;3.28;72.58;102332.19;5031098;28;20064;-21
2022/02/26 06:39:51;;;;;;;7.05;1.90;;;;;;;3.26;72.44;102331.22;5032118;28;20483;-21
2022/02/26 06:42:16;;;;;;;8.38;2.42;;;;;;;3.26;72.31;102342.56;5030027;28;20163;-21
2022/02/26 06:44:42;;;;;;;6.50;2.03;;;;;;;3.24;72.20;102344.22;5035145;28;20050;-21
2022/02/26 06:47:07;;;;;;;4.50;1.95;;;;;;;3.24;72.38;102338.09;5031887;28;20486;-21
2022/02/26 06:49:33;;;;;;;6.28;2.65;;;;;;;3.25;72.39;102345.09;5030979;28;20096;-21
2022/02/26 06:51:58;;;;;;;6.75;1.92;;;;;;;3.25;72.53;102350.31;5034568;28;20049;-21
2022/02/26 06:54:24;;;;;;;4.40;1.77;;;;;;;3.24;72.49;102356.34;5032681;28;20029;-21
2022/02/26 06:56:49;;;;;;;9.93;3.08;;;;;;;3.23;72.46;102349.34;5035488;28;20036;-21
2022/02/26 06:59:15;;;;;;;9.48;3.28;;;;;;;3.23;72.59;102362.41;5033287;28;20029;-21
2022/02/26 07:01:41;;;;;;;7.50;3.38;;;;;;;3.23;72.74;102362.41;5033336;28;20029;-22
2022/02/26 07:04:07;;;;;;;6.22;3.00;;;;;;;3.23;72.56;102360.66;5031198;28;20013;-21
2022/02/26 07:06:32;;;;;;;8.15;3.47;;;;;;;3.23;72.88;102373.69;5035420;28;20025;-21
2022/02/26 07:08:58;;;;;;;8.80;3.78;;;;;;;3.23;72.88;102375.44;5031967;28;20033;-21
2022/02/26 07:11:23;;;;;;;6.88;2.72;;;;;;;3.24;72.96;102379.81;5036364;28;20079;-21
2022/02/26 07:13:48;;;;;;;5.95;2.35;;;;;;;3.20;72.96;102371.84;5031616;28;20036;-21
2022/02/26 07:16:14;;;;;;;10.15;3.22;;;;;;;3.24;72.88;102377.22;5031644;28;20044;-21
2022/02/26 07:18:40;;;;;;;6.38;2.55;;;;;;;3.23;72.90;102375.44;5042521;28;20538;-21
2022/02/26 07:21:05;;;;;;;6.40;2.53;;;;;;;3.25;72.96;102381.59;5034172;28;20028;-21
2022/02/26 07:23:31;;;;;;;7.63;2.65;;;;;;;3.24;72.60;102385.03;5034634;28;20519;-21
2022/02/26 07:25:57;;;;;;;11.68;4.00;;;;;;;3.27;72.68;102393.03;5035893;28;20408;-21
2022/02/26 07:28:22;;;;;;;9.82;2.92;;;;;;;3.26;72.34;102391.19;5035786;28;20028;-21
2022/02/26 07:30:52;;;;;;;15.70;4.45;;;;;;;3.28;72.83;102400.91;5036214;28;20096;-21
2022/02/26 07:33:17;;;;;;;10.90;3.55;;;;;;;3.28;73.23;102410.44;5031871;28;20041;-21
2022/02/26 07:35:42;;;;;;;14.05;3.38;;;;;;;3.28;72.75;102407.84;5030961;28;20052;-21
2022/02/26 07:38:08;;;;;;;10.25;3.25;;;;;;;3.27;72.85;102408.66;5032658;28;20125;-21
2022/02/26 07:40:33;;;;;;;8.85;3.50;;;;;;;3.30;73.03;102414.03;5035544;28;20021;-21
2022/02/26 07:42:59;;;;;;;6.63;3.22;;;;;;;3.31;73.40;102424.50;5036676;28;20029;-21
2022/02/26 07:45:24;;;;;;;11.55;3.35;;;;;;;3.32;73.08;102428.03;5036589;28;20447;-21
2022/02/26 07:47:49;;;;;;;8.68;2.95;;;;;;;3.33;72.92;102428.09;5034585;28;20034;-21
2022/02/26 07:50:15;;;;;;;10.15;3.65;;;;;;;3.36;73.37;102431.69;5034422;28;20110;-21
2022/02/26 07:52:41;;;;;;;10.02;3.55;;;;;;;3.37;72.99;102431.75;5036971;28;20072;-21
2022/02/26 07:55:07;;;;;;;6.95;3.35;;;;;;;3.39;72.90;102437.94;5033705;28;20028;-21
2022/02/26 07:57:33;;;;;;;8.88;4.00;;;;;;;3.40;73.23;102439.72;5035340;28;20023;-21
2022/02/26 07:59:59;;;;;;;10.88;6.28;;;;;;;3.41;73.30;102441.53;5030550;28;20112;-21
2022/02/26 08:02:24;;;;;;;12.93;6.43;;;;;;;3.42;73.39;102438.09;5040381;28;20020;-22
2022/02/26 08:04:49;;;;;;;15.57;6.97;;;;;;;3.45;73.07;102450.41;5039606;28;20398;-22
2022/02/26 08:07:15;;;;;;;13.30;7.50;;;;;;;3.46;73.02;102440.03;5037937;28;20068;-21
2022/02/26 08:09:43;;;;;;;15.40;8.07;;;;;;;3.48;73.03;102447.94;5030283;28;20025;-21
2022/02/26 08:12:09;;;;;;;15.85;9.60;;;;;;;3.49;73.16;102449.72;5036995;28;20017;-21
2022/02/26 08:14:35;;;;;;;15.57;8.63;;;;;;;3.51;73.06;102463.75;5030868;28;20088;-21
2022/02/26 08:17:00;;;;;;;16.30;7.60;;;;;;;3.51;72.83;102466.38;5028332;28;20033;-21
2022/02/26 08:19:25;;;;;;;12.68;8.38;;;;;;;3.54;73.35;102455.19;5029117;28;20037;-21
2022/02/26 08:21:51;;;;;;;16.55;7.95;;;;;;;3.53;72.82;102464.72;5029887;28;20029;-21
2022/02/26 08:24:17;;;;;;;12.75;6.55;;;;;;;3.59;73.15;102471.94;5037803;28;20045;-21
2022/02/26 08:26:44;;;;;;;14.43;7.25;;;;;;;3.60;73.27;102463.28;5040171;28;20032;-21
2022/02/26 08:29:09;;;;;;;11.95;6.28;;;;;;;3.62;72.96;102472.09;5039841;28;20025;-21
2022/02/26 08:31:35;;;;;;;14.75;7.18;;;;;;;3.64;73.06;102475.69;5030605;28;20025;-21
2022/02/26 08:34:00;;;;;;;13.05;6.13;;;;;;;3.66;73.43;102479.25;5045558;28;20036;-21
2022/02/26 08:36:25;;;;;;;9.48;5.38;;;;;;;3.69;72.92;102488.94;5047750;28;20099;-21
2022/02/26 08:38:51;;;;;;;12.43;5.85;;;;;;;3.71;73.11;102487.31;5043658;28;20033;-21
2022/02/26 08:41:17;;;;;;;8.40;5.72;;;;;;;3.74;73.25;102489.16;5042935;28;20124;-21
2022/02/26 08:43:43;;;;;;;15.50;5.90;;;;;;;3.76;73.34;102490.16;5044774;28;20031;-21
2022/02/26 08:46:08;;;;;;;8.82;5.05;;;;;;;3.80;73.76;102494.69;5049629;28;20071;-21
2022/02/26 08:48:33;;;;;;;12.27;5.30;;;;;;;3.79;73.74;102491.19;5040454;28;20461;-21
2022/02/26 08:50:59;;;;;;;11.95;5.75;;;;;;;3.84;72.97;102489.69;5034546;28;20032;-21
2022/02/26 08:53:24;;;;;;;16.77;6.35;;;;;;;3.87;73.24;102488.06;5035219;28;20041;-21
2022/02/26 08:55:50;;;;;;;15.90;5.53;;;;;;;3.91;73.49;102490.91;5017055;28;20032;-22
2022/02/26 08:58:15;;;;;;;13.57;5.38;;;;;;;3.93;73.33;102488.31;5030650;28;20390;-21
2022/02/26 09:00:40;;;;;;;11.88;4.82;;;;;;;3.97;73.82;102498.13;5038370;28;20091;-21
2022/02/26 09:03:06;;;;;;;9.07;4.07;;;;;;;4.00;73.53;102498.25;5041519;28;20025;-21
2022/02/26 09:05:31;;;;;;;16.55;5.85;;;;;;;4.03;73.37;102494.91;5038432;28;20013;-21
2022/02/26 09:07:57;;;;;;;13.95;6.47;;;;;;;4.07;73.60;102496.84;5044798;28;20115;-22
2022/02/26 09:10:23;;;;;;;11.25;5.47;;;;;;;4.12;73.63;102497.94;5039806;28;20252;-21
2022/02/26 09:12:49;;;;;;;12.60;5.80;;;;;;;4.15;73.30;102502.41;5035810;28;20032;-21
2022/02/26 09:15:16;;;;;;;10.32;6.07;;;;;;;4.19;73.56;102506.94;5036773;28;20084;-21
2022/02/26 09:17:42;;;;;;;13.02;5.40;;;;;;;4.23;73.60;102511.50;5036471;28;20037;-21
2022/02/26 09:20:09;;;;;;;11.07;7.03;;;;;;;4.24;73.58;102508.97;5035687;28;20021;-21
2022/02/26 09:22:35;;;;;;;13.70;5.18;;;;;;;4.29;73.33;102510.88;5032320;28;20078;-21
2022/02/26 09:25:00;;;;;;;11.13;5.65;;;;;;;4.34;73.70;102512.00;5016072;28;20049;-21
2022/02/26 09:27:26;;;;;;;13.48;4.63;;;;;;;4.36;73.11;102526.03;5033016;28;20112;-21
2022/02/26 09:29:52;;;;;;;13.80;5.63;;;;;;;4.39;73.29;102520.94;5019152;28;20508;-21
2022/02/26 09:32:18;;;;;;;10.65;4.97;;;;;;;4.43;73.40;102522.88;5039812;28;20156;-21
2022/02/26 09:34:43;;;;;;;9.82;5.32;;;;;;;4.46;73.05;102523.03;5032434;28;20028;-21
2022/02/26 09:37:09;;;;;;;17.00;5.63;;;;;;;4.49;73.25;102525.78;5037573;28;20440;-21
2022/02/26 09:39:34;;;;;;;12.88;4.95;;;;;;;4.54;73.56;102528.63;5041153;28;20146;-21
2022/02/26 09:42:00;;;;;;;14.63;5.80;;;;;;;4.56;73.24;102532.19;5033228;28;20139;-21
2022/02/26 09:44:25;;;;;;;10.45;5.47;;;;;;;4.58;73.20;102527.03;5034233;28;20099;-21
2022/02/26 09:46:51;;;;;;;10.40;5.05;;;;;;;4.62;73.14;102535.09;5033838;28;20075;-21
2022/02/26 09:49:16;;;;;;;12.85;5.57;;;;;;;4.66;73.23;102536.09;5032107;28;20113;-21
2022/02/26 09:51:43;;;;;;;7.70;4.57;;;;;;;4.69;73.25;102544.09;5032582;28;20044;-21
2022/02/26 09:54:09;;;;;;;14.20;5.22;;;;;;;4.72;73.28;102554.69;5032938;28;20052;-21
2022/02/26 09:56:36;;;;;;;8.98;5.50;;;;;;;4.76;72.90;102553.09;5034220;28;20025;-21
2022/02/26 09:59:02;;;;;;;11.57;5.05;;;;;;;4.79;73.58;102549.72;5033123;28;20060;-21
2022/02/26 10:01:27;;;;;;;10.57;5.15;;;;;;;4.81;72.92;102553.31;5035600;28;20064;-21
2022/02/26 10:04:09;;;;;;;12.93;4.65;;;;;;;4.88;72.65;102555.38;5030167;28;20060;-21
2022/02/26 10:06:34;;;;;;;13.45;4.93;;;;;;;4.90;72.66;102561.56;5034495;28;20024;-21
2022/02/26 10:09:02;;;;;;;11.07;4.63;;;;;;;4.93;72.59;102553.88;5029849;28;20039;-21
2022/02/26 10:11:38;;;;;;;12.32;4.47;;;;;;;4.98;72.65;102562.81;5029826;28;20148;-21
2022/02/26 10:14:06;;;;;;;12.50;5.07;;;;;;;5.01;72.90;102560.31;5038258;28;20033;-21
2022/02/26 10:16:54;;;;;;;14.02;5.03;;;;;;;5.05;72.67;102563.06;5033124;28;20025;-21
2022/02/26 10:19:23;;;;;;;9.60;4.40;;;;;;;5.07;72.73;102566.66;5031639;28;20495;-21
2022/02/26 10:21:49;;;;;;;10.98;5.53;;;;;;;5.10;72.89;102578.16;5031968;28;20029;-21
2022/02/26 10:24:15;;;;;;;8.07;3.85;;;;;;;5.14;72.37;102571.34;5030704;28;20399;-21
2022/02/26 10:26:55;;;;;;;10.15;4.50;;;;;;;5.18;72.28;102573.28;5038170;28;20034;-21
2022/02/26 10:29:22;;;;;;;14.77;4.97;;;;;;;5.23;72.45;102568.22;5036450;28;20036;-21
2022/02/26 10:31:51;;;;;;;11.23;5.88;;;;;;;5.26;72.20;102569.25;5034947;28;20048;-21
2022/02/26 10:34:23;;;;;;;10.15;4.88;;;;;;;5.29;72.32;102567.59;5035467;28;20075;-21
2022/02/26 10:37:14;;;;;;;14.95;4.78;;;;;;;5.34;72.32;102574.81;5032957;28;20316;-21
2022/02/26 10:39:43;;;;;;;10.85;4.05;;;;;;;5.37;71.84;102569.72;5033814;28;20026;-21
2022/02/26 10:42:16;;;;;;;9.55;4.50;;;;;;;5.42;71.84;102576.88;5037601;28;20024;-21
2022/02/26 10:44:42;;;;;;;12.32;4.10;;;;;;;5.45;72.48;102566.53;5035333;28;20380;-21
2022/02/26 10:47:13;;;;;;;13.77;4.63;;;;;;;5.48;72.42;102564.97;5033679;28;20479;-21
2022/02/26 10:49:46;;;;;;;13.38;4.82;;;;;;;5.52;72.09;102569.50;5035735;28;20028;-21
2022/02/26 10:52:14;;;;;;;13.23;5.30;;;;;;;5.58;72.11;102567.97;5035108;28;20703;-21
2022/02/26 10:54:40;;;;;;;14.63;5.25;;;;;;;5.62;71.56;102569.88;5034581;28;20033;-21
2022/02/26 10:57:08;;;;;;;9.45;4.13;;;;;;;5.67;71.68;102573.56;5031676;28;20032;-21
2022/02/26 10:59:36;;;;;;;8.38;4.35;;;;;;;5.71;71.73;102570.28;5036421;28;20107;-21
2022/02/26 11:02:09;;;;;;;7.50;4.22;;;;;;;5.75;71.59;102577.44;5028711;28;20033;-21
2022/02/26 11:04:35;;;;;;;13.98;4.28;;;;;;;5.80;71.48;102574.09;5030646;28;20396;-21
2022/02/26 11:07:01;;;;;;;10.75;4.40;;;;;;;5.84;71.48;102578.63;5032713;28;20533;-21
2022/02/26 11:09:27;;;;;;;8.82;4.35;;;;;;;5.88;70.98;102577.91;5033876;28;20029;-21
2022/02/26 11:11:55;;;;;;;9.45;4.95;;;;;;;5.92;71.10;102574.59;5033364;28;20052;-21
2022/02/26 11:14:22;;;;;;;9.02;3.88;;;;;;;5.99;71.14;102581.88;5033304;28;20502;-21
2022/02/26 11:16:53;;;;;;;9.73;4.07;;;;;;;6.02;71.02;102581.09;5031533;28;20029;-21
2022/02/26 11:19:22;;;;;;;7.72;4.20;;;;;;;6.08;71.21;102578.78;5035861;28;20029;-21
2022/02/26 11:21:48;;;;;;;12.82;4.10;;;;;;;6.09;71.44;102579.66;5032241;28;20036;-21
2022/02/26 11:24:15;;;;;;;11.35;4.50;;;;;;;6.16;71.06;102592.16;5043117;28;20104;-21